Terminal Aerodrome Forecast
Issued by NWS Mobile, AL

Home | Current Version | Previous Version | Text Only | Print | Product List | Glossary On
Versions: 1 2 3 4 5 6 7 8 9 10 11 12 13 14 15 16 17 18 19 20 21 22 23 24 25 26 27 28 29
000
FTUS44 KMOB 020500 RRA
TAFPNS
TAF
KPNS 020549Z 0206/0306 06004KT P6SM OVC005
     FM020800 08004KT 2SM -DZ BR OVC003
     FM021000 08004KT 1/2SM FG VV002
     FM021500 15005KT P6SM OVC009=

USA.gov is the U.S. government's official web portal to all federal, state and local government web resources and services.